sensor_id;sensor_type;location;lat;lon;timestamp;P1;durP1;ratioP1;P2;durP2;ratioP2
28481;SDS011;15703;49.588;6.260;2023-04-24T00:01:09;2.70;;;2.00;;
28481;SDS011;15703;49.588;6.260;2023-04-24T00:03:34;1.97;;;1.87;;
28481;SDS011;15703;49.588;6.260;2023-04-24T00:05:57;2.20;;;2.00;;
28481;SDS011;15703;49.588;6.260;2023-04-24T00:08:20;4.03;;;2.03;;
28481;SDS011;15703;49.588;6.260;2023-04-24T00:10:43;2.40;;;2.23;;
28481;SDS011;15703;49.588;6.260;2023-04-24T00:13:06;2.43;;;2.23;;
28481;SDS011;15703;49.588;6.260;2023-04-24T00:15:28;2.90;;;2.60;;
28481;SDS011;15703;49.588;6.260;2023-04-24T00:17:51;3.00;;;2.80;;
28481;SDS011;15703;49.588;6.260;2023-04-24T00:20:14;2.97;;;2.77;;
28481;SDS011;15703;49.588;6.260;2023-04-24T00:22:37;4.80;;;3.57;;
28481;SDS011;15703;49.588;6.260;2023-04-24T00:24:59;3.53;;;3.23;;
28481;SDS011;15703;49.588;6.260;2023-04-24T00:27:21;3.90;;;3.60;;
28481;SDS011;15703;49.588;6.260;2023-04-24T00:29:44;3.67;;;3.37;;
28481;SDS011;15703;49.588;6.260;2023-04-24T00:32:06;4.03;;;3.43;;
28481;SDS011;15703;49.588;6.260;2023-04-24T00:34:28;4.93;;;4.23;;
28481;SDS011;15703;49.588;6.260;2023-04-24T00:36:51;3.80;;;3.50;;
28481;SDS011;15703;49.588;6.260;2023-04-24T00:39:13;4.43;;;4.00;;
28481;SDS011;15703;49.588;6.260;2023-04-24T00:41:36;4.87;;;4.47;;
28481;SDS011;15703;49.588;6.260;2023-04-24T00:43:58;5.27;;;4.60;;
28481;SDS011;15703;49.588;6.260;2023-04-24T00:46:20;5.27;;;4.30;;
28481;SDS011;15703;49.588;6.260;2023-04-24T00:48:43;4.70;;;4.30;;
28481;SDS011;15703;49.588;6.260;2023-04-24T00:51:06;5.33;;;4.43;;
28481;SDS011;15703;49.588;6.260;2023-04-24T00:53:28;5.03;;;4.57;;
28481;SDS011;15703;49.588;6.260;2023-04-24T00:55:51;5.10;;;4.70;;
28481;SDS011;15703;49.588;6.260;2023-04-24T00:58:13;6.80;;;4.37;;
28481;SDS011;15703;49.588;6.260;2023-04-24T01:00:35;5.80;;;4.83;;
28481;SDS011;15703;49.588;6.260;2023-04-24T01:02:59;5.57;;;5.07;;
28481;SDS011;15703;49.588;6.260;2023-04-24T01:05:23;5.83;;;5.33;;
28481;SDS011;15703;49.588;6.260;2023-04-24T01:07:46;5.10;;;4.50;;
28481;SDS011;15703;49.588;6.260;2023-04-24T01:10:10;5.10;;;4.53;;
28481;SDS011;15703;49.588;6.260;2023-04-24T01:12:33;6.10;;;5.60;;
28481;SDS011;15703;49.588;6.260;2023-04-24T01:14:55;8.77;;;5.13;;
28481;SDS011;15703;49.588;6.260;2023-04-24T01:17:18;6.00;;;5.40;;
28481;SDS011;15703;49.588;6.260;2023-04-24T01:19:41;6.80;;;5.20;;
28481;SDS011;15703;49.588;6.260;2023-04-24T01:22:12;6.10;;;5.50;;
28481;SDS011;15703;49.588;6.260;2023-04-24T01:24:35;7.57;;;5.43;;
28481;SDS011;15703;49.588;6.260;2023-04-24T01:26:58;7.40;;;5.87;;
28481;SDS011;15703;49.588;6.260;2023-04-24T01:29:22;8.83;;;5.70;;
28481;SDS011;15703;49.588;6.260;2023-04-24T01:31:45;6.57;;;5.43;;
28481;SDS011;15703;49.588;6.260;2023-04-24T01:34:07;6.13;;;5.63;;
28481;SDS011;15703;49.588;6.260;2023-04-24T01:36:30;6.37;;;5.60;;
28481;SDS011;15703;49.588;6.260;2023-04-24T01:38:52;7.20;;;6.50;;
28481;SDS011;15703;49.588;6.260;2023-04-24T01:41:15;7.37;;;5.83;;
28481;SDS011;15703;49.588;6.260;2023-04-24T01:43:38;6.90;;;6.23;;
28481;SDS011;15703;49.588;6.260;2023-04-24T01:46:01;8.13;;;6.67;;
28481;SDS011;15703;49.588;6.260;2023-04-24T01:48:24;6.83;;;6.13;;
28481;SDS011;15703;49.588;6.260;2023-04-24T01:50:46;8.87;;;6.93;;
28481;SDS011;15703;49.588;6.260;2023-04-24T01:53:08;6.97;;;6.27;;
28481;SDS011;15703;49.588;6.260;2023-04-24T01:55:31;8.37;;;7.40;;
28481;SDS011;15703;49.588;6.260;2023-04-24T01:57:53;7.20;;;6.27;;
28481;SDS011;15703;49.588;6.260;2023-04-24T02:00:17;9.50;;;7.17;;
28481;SDS011;15703;49.588;6.260;2023-04-24T02:02:39;7.70;;;6.90;;
28481;SDS011;15703;49.588;6.260;2023-04-24T02:05:08;7.90;;;7.10;;
28481;SDS011;15703;49.588;6.260;2023-04-24T02:07:31;7.77;;;7.03;;
28481;SDS011;15703;49.588;6.260;2023-04-24T02:09:54;8.80;;;7.87;;
28481;SDS011;15703;49.588;6.260;2023-04-24T02:12:16;10.03;;;8.90;;
28481;SDS011;15703;49.588;6.260;2023-04-24T02:14:38;10.17;;;8.77;;
28481;SDS011;15703;49.588;6.260;2023-04-24T02:17:01;10.63;;;9.53;;
28481;SDS011;15703;49.588;6.260;2023-04-24T02:19:23;10.53;;;9.60;;
28481;SDS011;15703;49.588;6.260;2023-04-24T02:21:45;10.53;;;8.87;;
28481;SDS011;15703;49.588;6.260;2023-04-24T02:24:07;11.87;;;10.53;;
28481;SDS011;15703;49.588;6.260;2023-04-24T02:26:30;12.47;;;10.37;;
28481;SDS011;15703;49.588;6.260;2023-04-24T02:28:52;14.70;;;11.37;;
28481;SDS011;15703;49.588;6.260;2023-04-24T02:31:15;13.23;;;10.47;;
28481;SDS011;15703;49.588;6.260;2023-04-24T02:33:37;16.90;;;11.20;;
28481;SDS011;15703;49.588;6.260;2023-04-24T02:35:59;12.10;;;10.90;;
28481;SDS011;15703;49.588;6.260;2023-04-24T02:38:21;14.30;;;10.83;;
28481;SDS011;15703;49.588;6.260;2023-04-24T02:40:44;12.07;;;10.83;;
28481;SDS011;15703;49.588;6.260;2023-04-24T02:43:06;13.37;;;10.80;;
28481;SDS011;15703;49.588;6.260;2023-04-24T02:45:28;11.63;;;10.43;;
28481;SDS011;15703;49.588;6.260;2023-04-24T02:47:51;14.83;;;11.10;;
28481;SDS011;15703;49.588;6.260;2023-04-24T02:50:13;13.67;;;10.73;;
28481;SDS011;15703;49.588;6.260;2023-04-24T02:52:35;12.17;;;10.83;;
28481;SDS011;15703;49.588;6.260;2023-04-24T02:54:58;13.77;;;11.13;;
28481;SDS011;15703;49.588;6.260;2023-04-24T02:57:20;14.83;;;11.03;;
28481;SDS011;15703;49.588;6.260;2023-04-24T02:59:43;14.63;;;12.63;;
28481;SDS011;15703;49.588;6.260;2023-04-24T03:02:05;18.27;;;13.23;;
28481;SDS011;15703;49.588;6.260;2023-04-24T03:04:27;13.80;;;12.43;;
28481;SDS011;15703;49.588;6.260;2023-04-24T03:06:50;13.03;;;11.73;;
28481;SDS011;15703;49.588;6.260;2023-04-24T03:09:14;18.50;;;12.47;;
28481;SDS011;15703;49.588;6.260;2023-04-24T03:11:36;16.40;;;12.67;;
28481;SDS011;15703;49.588;6.260;2023-04-24T03:14:02;17.50;;;13.10;;
28481;SDS011;15703;49.588;6.260;2023-04-24T03:16:24;14.20;;;11.53;;
28481;SDS011;15703;49.588;6.260;2023-04-24T03:18:49;12.97;;;11.27;;
28481;SDS011;15703;49.588;6.260;2023-04-24T03:21:12;13.50;;;12.10;;
28481;SDS011;15703;49.588;6.260;2023-04-24T03:23:35;14.37;;;12.87;;
28481;SDS011;15703;49.588;6.260;2023-04-24T03:25:58;11.23;;;10.13;;
28481;SDS011;15703;49.588;6.260;2023-04-24T03:28:21;15.03;;;11.73;;
28481;SDS011;15703;49.588;6.260;2023-04-24T03:30:49;13.37;;;11.20;;
28481;SDS011;15703;49.588;6.260;2023-04-24T03:33:12;14.37;;;11.03;;
28481;SDS011;15703;49.588;6.260;2023-04-24T03:35:42;14.93;;;11.67;;
28481;SDS011;15703;49.588;6.260;2023-04-24T03:38:06;12.93;;;11.30;;
28481;SDS011;15703;49.588;6.260;2023-04-24T03:40:40;13.77;;;11.83;;
28481;SDS011;15703;49.588;6.260;2023-04-24T03:43:25;15.27;;;10.73;;
28481;SDS011;15703;49.588;6.260;2023-04-24T03:45:50;11.50;;;10.07;;
28481;SDS011;15703;49.588;6.260;2023-04-24T03:48:13;13.97;;;10.80;;
28481;SDS011;15703;49.588;6.260;2023-04-24T03:50:36;10.90;;;9.80;;
28481;SDS011;15703;49.588;6.260;2023-04-24T03:53:03;12.83;;;9.97;;
28481;SDS011;15703;49.588;6.260;2023-04-24T03:55:32;12.47;;;9.63;;
28481;SDS011;15703;49.588;6.260;2023-04-24T03:57:55;10.53;;;9.43;;
28481;SDS011;15703;49.588;6.260;2023-04-24T04:00:17;9.63;;;8.63;;
28481;SDS011;15703;49.588;6.260;2023-04-24T04:02:46;12.80;;;9.50;;
28481;SDS011;15703;49.588;6.260;2023-04-24T04:05:09;10.93;;;9.53;;
28481;SDS011;15703;49.588;6.260;2023-04-24T04:07:31;12.83;;;9.77;;
28481;SDS011;15703;49.588;6.260;2023-04-24T04:09:53;10.53;;;8.97;;
28481;SDS011;15703;49.588;6.260;2023-04-24T04:12:17;10.20;;;8.90;;
28481;SDS011;15703;49.588;6.260;2023-04-24T04:14:39;11.03;;;9.23;;
28481;SDS011;15703;49.588;6.260;2023-04-24T04:17:02;11.23;;;9.83;;
28481;SDS011;15703;49.588;6.260;2023-04-24T04:19:24;11.00;;;9.20;;
28481;SDS011;15703;49.588;6.260;2023-04-24T04:21:47;13.93;;;9.73;;
28481;SDS011;15703;49.588;6.260;2023-04-24T04:24:22;11.13;;;9.27;;
28481;SDS011;15703;49.588;6.260;2023-04-24T04:26:46;10.80;;;9.43;;
28481;SDS011;15703;49.588;6.260;2023-04-24T04:29:22;11.70;;;9.50;;
28481;SDS011;15703;49.588;6.260;2023-04-24T04:31:45;10.57;;;9.20;;
28481;SDS011;15703;49.588;6.260;2023-04-24T04:34:08;10.93;;;9.63;;
28481;SDS011;15703;49.588;6.260;2023-04-24T04:36:32;12.30;;;9.07;;
28481;SDS011;15703;49.588;6.260;2023-04-24T04:39:10;10.13;;;9.13;;
28481;SDS011;15703;49.588;6.260;2023-04-24T04:41:43;11.90;;;9.87;;
28481;SDS011;15703;49.588;6.260;2023-04-24T04:44:05;10.90;;;9.73;;
28481;SDS011;15703;49.588;6.260;2023-04-24T04:46:30;15.23;;;9.47;;
28481;SDS011;15703;49.588;6.260;2023-04-24T04:49:14;9.57;;;8.67;;
28481;SDS011;15703;49.588;6.260;2023-04-24T04:51:39;9.60;;;8.63;;
28481;SDS011;15703;49.588;6.260;2023-04-24T04:54:03;10.33;;;8.63;;
28481;SDS011;15703;49.588;6.260;2023-04-24T04:56:26;9.03;;;8.13;;
28481;SDS011;15703;49.588;6.260;2023-04-24T04:58:49;9.30;;;8.30;;
28481;SDS011;15703;49.588;6.260;2023-04-24T05:01:12;12.67;;;8.97;;
28481;SDS011;15703;49.588;6.260;2023-04-24T05:03:38;9.90;;;8.03;;
28481;SDS011;15703;49.588;6.260;2023-04-24T05:06:05;9.00;;;8.10;;
28481;SDS011;15703;49.588;6.260;2023-04-24T05:08:31;9.53;;;7.30;;
28481;SDS011;15703;49.588;6.260;2023-04-24T05:10:54;9.20;;;7.50;;
28481;SDS011;15703;49.588;6.260;2023-04-24T05:13:17;9.17;;;8.17;;
28481;SDS011;15703;49.588;6.260;2023-04-24T05:15:57;8.57;;;7.53;;
28481;SDS011;15703;49.588;6.260;2023-04-24T05:18:20;9.43;;;8.53;;
28481;SDS011;15703;49.588;6.260;2023-04-24T05:20:43;8.93;;;7.77;;
28481;SDS011;15703;49.588;6.260;2023-04-24T05:23:07;8.53;;;7.73;;
28481;SDS011;15703;49.588;6.260;2023-04-24T05:25:31;8.50;;;7.70;;
28481;SDS011;15703;49.588;6.260;2023-04-24T05:28:01;8.63;;;7.83;;
28481;SDS011;15703;49.588;6.260;2023-04-24T05:30:24;9.17;;;7.67;;
28481;SDS011;15703;49.588;6.260;2023-04-24T05:32:46;8.30;;;7.57;;
28481;SDS011;15703;49.588;6.260;2023-04-24T05:35:08;8.80;;;7.90;;
28481;SDS011;15703;49.588;6.260;2023-04-24T05:37:31;11.17;;;8.07;;
28481;SDS011;15703;49.588;6.260;2023-04-24T05:39:53;9.17;;;8.13;;
28481;SDS011;15703;49.588;6.260;2023-04-24T05:42:16;9.23;;;8.33;;
28481;SDS011;15703;49.588;6.260;2023-04-24T05:44:39;8.23;;;7.43;;
28481;SDS011;15703;49.588;6.260;2023-04-24T05:47:01;9.07;;;8.13;;
28481;SDS011;15703;49.588;6.260;2023-04-24T05:49:24;7.70;;;7.00;;
28481;SDS011;15703;49.588;6.260;2023-04-24T05:51:46;8.80;;;7.37;;
28481;SDS011;15703;49.588;6.260;2023-04-24T05:54:09;8.10;;;7.30;;
28481;SDS011;15703;49.588;6.260;2023-04-24T05:56:33;8.13;;;6.93;;
28481;SDS011;15703;49.588;6.260;2023-04-24T05:58:58;8.47;;;6.63;;
28481;SDS011;15703;49.588;6.260;2023-04-24T06:01:20;6.97;;;6.30;;
28481;SDS011;15703;49.588;6.260;2023-04-24T06:03:50;9.23;;;6.83;;
28481;SDS011;15703;49.588;6.260;2023-04-24T06:06:14;7.80;;;6.07;;
28481;SDS011;15703;49.588;6.260;2023-04-24T06:08:37;7.40;;;6.70;;
28481;SDS011;15703;49.588;6.260;2023-04-24T06:10:59;15.53;;;6.47;;
28481;SDS011;15703;49.588;6.260;2023-04-24T06:13:24;16.33;;;7.47;;
28481;SDS011;15703;49.588;6.260;2023-04-24T06:16:06;8.40;;;6.60;;
28481;SDS011;15703;49.588;6.260;2023-04-24T06:18:32;11.60;;;7.30;;
28481;SDS011;15703;49.588;6.260;2023-04-24T06:20:54;11.33;;;7.67;;
28481;SDS011;15703;49.588;6.260;2023-04-24T06:23:17;12.37;;;7.87;;
28481;SDS011;15703;49.588;6.260;2023-04-24T06:25:41;11.47;;;8.03;;
28481;SDS011;15703;49.588;6.260;2023-04-24T06:28:05;8.40;;;7.33;;
28481;SDS011;15703;49.588;6.260;2023-04-24T06:30:28;9.40;;;7.73;;
28481;SDS011;15703;49.588;6.260;2023-04-24T06:32:51;9.17;;;8.10;;
28481;SDS011;15703;49.588;6.260;2023-04-24T06:35:13;9.13;;;8.23;;
28481;SDS011;15703;49.588;6.260;2023-04-24T06:37:35;10.27;;;8.10;;
28481;SDS011;15703;49.588;6.260;2023-04-24T06:39:58;9.80;;;8.80;;
28481;SDS011;15703;49.588;6.260;2023-04-24T06:42:20;10.97;;;9.37;;
28481;SDS011;15703;49.588;6.260;2023-04-24T06:44:43;11.47;;;9.00;;
28481;SDS011;15703;49.588;6.260;2023-04-24T06:47:07;9.80;;;7.83;;
28481;SDS011;15703;49.588;6.260;2023-04-24T06:49:29;13.13;;;9.23;;
28481;SDS011;15703;49.588;6.260;2023-04-24T06:51:52;11.70;;;9.40;;
28481;SDS011;15703;49.588;6.260;2023-04-24T06:54:14;9.97;;;8.50;;
28481;SDS011;15703;49.588;6.260;2023-04-24T06:56:36;10.00;;;8.20;;
28481;SDS011;15703;49.588;6.260;2023-04-24T06:58:58;12.30;;;8.60;;
28481;SDS011;15703;49.588;6.260;2023-04-24T07:01:20;9.67;;;7.97;;
28481;SDS011;15703;49.588;6.260;2023-04-24T07:03:43;11.67;;;9.20;;
28481;SDS011;15703;49.588;6.260;2023-04-24T07:06:06;10.43;;;9.47;;
28481;SDS011;15703;49.588;6.260;2023-04-24T07:08:28;12.13;;;8.90;;
28481;SDS011;15703;49.588;6.260;2023-04-24T07:10:54;13.73;;;9.50;;
28481;SDS011;15703;49.588;6.260;2023-04-24T07:13:17;10.03;;;8.77;;
28481;SDS011;15703;49.588;6.260;2023-04-24T07:15:39;10.97;;;9.23;;
28481;SDS011;15703;49.588;6.260;2023-04-24T07:18:02;11.33;;;10.03;;
28481;SDS011;15703;49.588;6.260;2023-04-24T07:20:26;13.83;;;9.77;;
28481;SDS011;15703;49.588;6.260;2023-04-24T07:22:49;10.23;;;9.30;;
28481;SDS011;15703;49.588;6.260;2023-04-24T07:25:12;9.80;;;8.80;;
28481;SDS011;15703;49.588;6.260;2023-04-24T07:27:35;13.47;;;9.77;;
28481;SDS011;15703;49.588;6.260;2023-04-24T07:29:57;9.50;;;8.53;;
28481;SDS011;15703;49.588;6.260;2023-04-24T07:32:20;9.00;;;8.10;;
28481;SDS011;15703;49.588;6.260;2023-04-24T07:34:42;10.80;;;8.57;;
28481;SDS011;15703;49.588;6.260;2023-04-24T07:37:05;11.50;;;7.33;;
28481;SDS011;15703;49.588;6.260;2023-04-24T07:39:27;11.67;;;7.30;;
28481;SDS011;15703;49.588;6.260;2023-04-24T07:41:50;8.33;;;7.47;;
28481;SDS011;15703;49.588;6.260;2023-04-24T07:44:15;7.87;;;7.07;;
28481;SDS011;15703;49.588;6.260;2023-04-24T07:46:38;8.20;;;7.40;;
28481;SDS011;15703;49.588;6.260;2023-04-24T07:49:00;9.77;;;8.07;;
28481;SDS011;15703;49.588;6.260;2023-04-24T07:51:34;18.33;;;8.93;;
28481;SDS011;15703;49.588;6.260;2023-04-24T07:54:00;19.77;;;8.80;;
28481;SDS011;15703;49.588;6.260;2023-04-24T07:56:22;9.47;;;8.43;;
28481;SDS011;15703;49.588;6.260;2023-04-24T07:58:48;9.30;;;8.13;;
28481;SDS011;15703;49.588;6.260;2023-04-24T08:01:10;21.77;;;9.07;;
28481;SDS011;15703;49.588;6.260;2023-04-24T08:03:34;11.47;;;9.40;;
28481;SDS011;15703;49.588;6.260;2023-04-24T08:05:56;11.60;;;8.67;;
28481;SDS011;15703;49.588;6.260;2023-04-24T08:08:22;10.53;;;9.40;;
28481;SDS011;15703;49.588;6.260;2023-04-24T08:10:47;11.77;;;8.57;;
28481;SDS011;15703;49.588;6.260;2023-04-24T08:13:10;10.77;;;9.20;;
28481;SDS011;15703;49.588;6.260;2023-04-24T08:15:35;16.53;;;9.17;;
28481;SDS011;15703;49.588;6.260;2023-04-24T08:17:58;14.13;;;9.37;;
28481;SDS011;15703;49.588;6.260;2023-04-24T08:20:20;17.17;;;10.40;;
28481;SDS011;15703;49.588;6.260;2023-04-24T08:22:44;13.10;;;10.77;;
28481;SDS011;15703;49.588;6.260;2023-04-24T08:25:09;12.73;;;10.27;;
28481;SDS011;15703;49.588;6.260;2023-04-24T08:27:32;16.23;;;10.63;;
28481;SDS011;15703;49.588;6.260;2023-04-24T08:29:56;12.87;;;10.13;;
28481;SDS011;15703;49.588;6.260;2023-04-24T08:32:22;12.90;;;10.53;;
28481;SDS011;15703;49.588;6.260;2023-04-24T08:34:45;14.17;;;10.30;;
28481;SDS011;15703;49.588;6.260;2023-04-24T08:37:10;14.27;;;10.10;;
28481;SDS011;15703;49.588;6.260;2023-04-24T08:39:32;11.57;;;9.57;;
28481;SDS011;15703;49.588;6.260;2023-04-24T08:41:55;14.00;;;10.50;;
28481;SDS011;15703;49.588;6.260;2023-04-24T08:44:17;11.67;;;9.63;;
28481;SDS011;15703;49.588;6.260;2023-04-24T08:46:42;14.13;;;10.83;;
28481;SDS011;15703;49.588;6.260;2023-04-24T08:49:07;10.93;;;9.83;;
28481;SDS011;15703;49.588;6.260;2023-04-24T08:51:29;13.00;;;9.93;;
28481;SDS011;15703;49.588;6.260;2023-04-24T08:53:53;13.50;;;10.00;;
28481;SDS011;15703;49.588;6.260;2023-04-24T08:56:16;15.27;;;10.23;;
28481;SDS011;15703;49.588;6.260;2023-04-24T08:58:39;10.90;;;9.43;;
28481;SDS011;15703;49.588;6.260;2023-04-24T09:01:02;10.67;;;8.87;;
28481;SDS011;15703;49.588;6.260;2023-04-24T09:03:26;10.87;;;8.30;;
28481;SDS011;15703;49.588;6.260;2023-04-24T09:05:49;10.83;;;7.97;;
28481;SDS011;15703;49.588;6.260;2023-04-24T09:08:13;9.33;;;8.43;;
28481;SDS011;15703;49.588;6.260;2023-04-24T09:10:35;9.23;;;7.60;;
28481;SDS011;15703;49.588;6.260;2023-04-24T09:12:58;7.70;;;6.90;;
28481;SDS011;15703;49.588;6.260;2023-04-24T09:16:02;9.47;;;6.73;;
28481;SDS011;15703;49.588;6.260;2023-04-24T09:18:26;10.53;;;7.70;;
28481;SDS011;15703;49.588;6.260;2023-04-24T09:21:07;7.80;;;7.00;;
28481;SDS011;15703;49.588;6.260;2023-04-24T09:23:31;9.63;;;7.60;;
28481;SDS011;15703;49.588;6.260;2023-04-24T09:25:54;10.47;;;7.73;;
28481;SDS011;15703;49.588;6.260;2023-04-24T09:28:17;8.87;;;7.97;;
28481;SDS011;15703;49.588;6.260;2023-04-24T09:30:40;8.73;;;7.80;;
28481;SDS011;15703;49.588;6.260;2023-04-24T09:33:09;8.13;;;6.67;;
28481;SDS011;15703;49.588;6.260;2023-04-24T09:35:32;7.70;;;6.90;;
28481;SDS011;15703;49.588;6.260;2023-04-24T09:37:57;11.40;;;7.33;;
28481;SDS011;15703;49.588;6.260;2023-04-24T09:40:21;9.07;;;7.07;;
28481;SDS011;15703;49.588;6.260;2023-04-24T09:43:05;8.37;;;7.00;;
28481;SDS011;15703;49.588;6.260;2023-04-24T09:45:27;7.90;;;7.07;;
28481;SDS011;15703;49.588;6.260;2023-04-24T09:47:58;7.07;;;6.43;;
28481;SDS011;15703;49.588;6.260;2023-04-24T09:50:22;7.27;;;6.17;;
28481;SDS011;15703;49.588;6.260;2023-04-24T09:53:06;7.00;;;6.30;;
28481;SDS011;15703;49.588;6.260;2023-04-24T09:55:30;6.57;;;5.97;;
28481;SDS011;15703;49.588;6.260;2023-04-24T09:57:56;7.13;;;6.43;;
28481;SDS011;15703;49.588;6.260;2023-04-24T10:00:21;6.83;;;5.83;;
28481;SDS011;15703;49.588;6.260;2023-04-24T10:02:44;7.50;;;5.83;;
28481;SDS011;15703;49.588;6.260;2023-04-24T10:05:07;6.77;;;5.90;;
28481;SDS011;15703;49.588;6.260;2023-04-24T10:07:33;7.03;;;6.20;;
28481;SDS011;15703;49.588;6.260;2023-04-24T10:09:55;9.70;;;5.93;;
28481;SDS011;15703;49.588;6.260;2023-04-24T10:12:18;10.23;;;6.20;;
28481;SDS011;15703;49.588;6.260;2023-04-24T10:14:40;7.90;;;6.33;;
28481;SDS011;15703;49.588;6.260;2023-04-24T10:17:05;6.23;;;5.60;;
28481;SDS011;15703;49.588;6.260;2023-04-24T10:19:28;6.23;;;5.20;;
28481;SDS011;15703;49.588;6.260;2023-04-24T10:21:51;5.47;;;4.63;;
28481;SDS011;15703;49.588;6.260;2023-04-24T10:24:17;5.70;;;5.10;;
28481;SDS011;15703;49.588;6.260;2023-04-24T10:26:44;5.00;;;4.50;;
28481;SDS011;15703;49.588;6.260;2023-04-24T10:29:07;5.23;;;4.67;;
28481;SDS011;15703;49.588;6.260;2023-04-24T10:31:31;7.33;;;5.83;;
28481;SDS011;15703;49.588;6.260;2023-04-24T10:33:54;7.50;;;6.20;;
28481;SDS011;15703;49.588;6.260;2023-04-24T10:36:21;8.03;;;6.40;;
28481;SDS011;15703;49.588;6.260;2023-04-24T10:38:45;7.43;;;6.27;;
28481;SDS011;15703;49.588;6.260;2023-04-24T10:41:10;7.70;;;6.60;;
28481;SDS011;15703;49.588;6.260;2023-04-24T10:43:44;12.67;;;6.50;;
28481;SDS011;15703;49.588;6.260;2023-04-24T10:46:06;6.83;;;6.10;;
28481;SDS011;15703;49.588;6.260;2023-04-24T10:48:29;6.97;;;6.30;;
28481;SDS011;15703;49.588;6.260;2023-04-24T10:50:52;6.00;;;5.40;;
28481;SDS011;15703;49.588;6.260;2023-04-24T10:53:19;7.13;;;6.13;;
28481;SDS011;15703;49.588;6.260;2023-04-24T10:55:49;7.67;;;6.87;;
28481;SDS011;15703;49.588;6.260;2023-04-24T10:58:12;8.50;;;7.00;;
28481;SDS011;15703;49.588;6.260;2023-04-24T11:00:36;9.20;;;6.93;;
28481;SDS011;15703;49.588;6.260;2023-04-24T11:02:59;9.33;;;7.00;;
28481;SDS011;15703;49.588;6.260;2023-04-24T11:05:22;8.37;;;6.23;;
28481;SDS011;15703;49.588;6.260;2023-04-24T11:08:14;9.80;;;7.03;;
28481;SDS011;15703;49.588;6.260;2023-04-24T11:10:38;9.07;;;6.07;;
28481;SDS011;15703;49.588;6.260;2023-04-24T11:13:17;8.90;;;5.70;;
28481;SDS011;15703;49.588;6.260;2023-04-24T11:15:45;8.27;;;6.57;;
28481;SDS011;15703;49.588;6.260;2023-04-24T11:18:37;8.47;;;7.00;;
28481;SDS011;15703;49.588;6.260;2023-04-24T11:21:09;7.87;;;7.07;;
28481;SDS011;15703;49.588;6.260;2023-04-24T11:23:35;9.10;;;6.83;;
28481;SDS011;15703;49.588;6.260;2023-04-24T11:28:54;8.77;;;6.83;;
28481;SDS011;15703;49.588;6.260;2023-04-24T11:34:13;8.23;;;6.23;;
28481;SDS011;15703;49.588;6.260;2023-04-24T11:36:36;7.10;;;5.97;;
28481;SDS011;15703;49.588;6.260;2023-04-24T11:38:58;11.15;;;6.22;;
28481;SDS011;15703;49.588;6.260;2023-04-24T11:41:46;6.97;;;6.27;;
28481;SDS011;15703;49.588;6.260;2023-04-24T11:44:23;7.87;;;5.90;;
28481;SDS011;15703;49.588;6.260;2023-04-24T11:46:47;6.47;;;5.63;;
28481;SDS011;15703;49.588;6.260;2023-04-24T11:49:09;10.63;;;6.10;;
28481;SDS011;15703;49.588;6.260;2023-04-24T11:51:38;8.27;;;6.73;;
28481;SDS011;15703;49.588;6.260;2023-04-24T11:54:13;9.60;;;6.20;;
28481;SDS011;15703;49.588;6.260;2023-04-24T11:56:36;7.07;;;5.90;;
28481;SDS011;15703;49.588;6.260;2023-04-24T11:59:28;7.70;;;5.53;;
28481;SDS011;15703;49.588;6.260;2023-04-24T12:01:51;8.47;;;5.87;;
28481;SDS011;15703;49.588;6.260;2023-04-24T12:04:14;7.27;;;6.57;;
28481;SDS011;15703;49.588;6.260;2023-04-24T12:06:59;7.07;;;5.70;;
28481;SDS011;15703;49.588;6.260;2023-04-24T12:09:22;8.73;;;5.78;;
28481;SDS011;15703;49.588;6.260;2023-04-24T12:11:54;7.90;;;5.47;;
28481;SDS011;15703;49.588;6.260;2023-04-24T12:15:45;5.93;;;5.35;;
28481;SDS011;15703;49.588;6.260;2023-04-24T12:18:12;6.03;;;5.45;;
28481;SDS011;15703;49.588;6.260;2023-04-24T12:20:35;6.70;;;5.22;;
28481;SDS011;15703;49.588;6.260;2023-04-24T12:22:58;6.15;;;5.40;;
28481;SDS011;15703;49.588;6.260;2023-04-24T12:25:25;8.05;;;5.75;;
28481;SDS011;15703;49.588;6.260;2023-04-24T12:30:27;6.22;;;5.15;;
28481;SDS011;15703;49.588;6.260;2023-04-24T12:32:50;10.25;;;6.18;;
28481;SDS011;15703;49.588;6.260;2023-04-24T12:35:19;7.65;;;6.20;;
28481;SDS011;15703;49.588;6.260;2023-04-24T12:37:50;7.17;;;5.90;;
28481;SDS011;15703;49.588;6.260;2023-04-24T12:40:13;6.93;;;5.50;;
28481;SDS011;15703;49.588;6.260;2023-04-24T12:42:46;6.87;;;5.73;;
28481;SDS011;15703;49.588;6.260;2023-04-24T12:45:09;6.57;;;5.88;;
28481;SDS011;15703;49.588;6.260;2023-04-24T12:47:33;9.00;;;6.07;;
28481;SDS011;15703;49.588;6.260;2023-04-24T12:49:57;7.22;;;5.82;;
28481;SDS011;15703;49.588;6.260;2023-04-24T12:52:59;7.25;;;6.25;;
28481;SDS011;15703;49.588;6.260;2023-04-24T12:55:22;7.00;;;6.18;;
28481;SDS011;15703;49.588;6.260;2023-04-24T12:57:45;6.03;;;5.43;;
28481;SDS011;15703;49.588;6.260;2023-04-24T13:00:14;6.63;;;5.78;;
28481;SDS011;15703;49.588;6.260;2023-04-24T13:02:40;10.20;;;6.70;;
28481;SDS011;15703;49.588;6.260;2023-04-24T13:05:03;9.90;;;6.37;;
28481;SDS011;15703;49.588;6.260;2023-04-24T13:07:26;7.23;;;6.47;;
28481;SDS011;15703;49.588;6.260;2023-04-24T13:09:57;7.47;;;6.67;;
28481;SDS011;15703;49.588;6.260;2023-04-24T13:12:25;6.90;;;6.10;;
28481;SDS011;15703;49.588;6.260;2023-04-24T13:14:48;10.33;;;7.20;;
28481;SDS011;15703;49.588;6.260;2023-04-24T13:17:11;8.00;;;6.50;;
28481;SDS011;15703;49.588;6.260;2023-04-24T13:19:35;7.30;;;6.13;;
28481;SDS011;15703;49.588;6.260;2023-04-24T13:22:18;7.17;;;5.83;;
28481;SDS011;15703;49.588;6.260;2023-04-24T13:25:41;8.50;;;6.97;;
28481;SDS011;15703;49.588;6.260;2023-04-24T13:28:03;8.57;;;6.40;;
28481;SDS011;15703;49.588;6.260;2023-04-24T13:30:25;9.33;;;6.53;;
28481;SDS011;15703;49.588;6.260;2023-04-24T13:32:48;10.50;;;7.23;;
28481;SDS011;15703;49.588;6.260;2023-04-24T13:35:10;8.30;;;7.40;;
28481;SDS011;15703;49.588;6.260;2023-04-24T13:37:33;10.33;;;7.43;;
28481;SDS011;15703;49.588;6.260;2023-04-24T13:39:55;7.73;;;7.00;;
28481;SDS011;15703;49.588;6.260;2023-04-24T13:43:03;7.00;;;5.93;;
28481;SDS011;15703;49.588;6.260;2023-04-24T13:45:26;6.10;;;5.50;;
28481;SDS011;15703;49.588;6.260;2023-04-24T13:54:32;5.93;;;4.70;;
28481;SDS011;15703;49.588;6.260;2023-04-24T13:56:55;6.10;;;4.43;;
28481;SDS011;15703;49.588;6.260;2023-04-24T13:59:31;5.45;;;4.38;;
28481;SDS011;15703;49.588;6.260;2023-04-24T14:01:54;5.60;;;5.10;;
28481;SDS011;15703;49.588;6.260;2023-04-24T14:04:17;4.88;;;4.35;;
28481;SDS011;15703;49.588;6.260;2023-04-24T14:06:39;6.53;;;5.50;;
28481;SDS011;15703;49.588;6.260;2023-04-24T14:09:02;5.97;;;5.38;;
28481;SDS011;15703;49.588;6.260;2023-04-24T14:11:24;6.60;;;5.33;;
28481;SDS011;15703;49.588;6.260;2023-04-24T14:14:26;5.43;;;4.63;;
28481;SDS011;15703;49.588;6.260;2023-04-24T14:16:57;6.05;;;4.05;;
28481;SDS011;15703;49.588;6.260;2023-04-24T14:19:20;5.47;;;4.70;;
28481;SDS011;15703;49.588;6.260;2023-04-24T14:21:43;6.07;;;4.37;;
28481;SDS011;15703;49.588;6.260;2023-04-24T14:24:05;5.72;;;4.85;;
28481;SDS011;15703;49.588;6.260;2023-04-24T14:27:08;5.45;;;4.47;;
28481;SDS011;15703;49.588;6.260;2023-04-24T14:29:30;5.20;;;4.40;;
28481;SDS011;15703;49.588;6.260;2023-04-24T14:31:55;5.47;;;3.80;;
28481;SDS011;15703;49.588;6.260;2023-04-24T14:34:18;4.17;;;3.50;;
28481;SDS011;15703;49.588;6.260;2023-04-24T14:36:42;3.57;;;3.13;;
28481;SDS011;15703;49.588;6.260;2023-04-24T14:39:05;3.57;;;3.23;;
28481;SDS011;15703;49.588;6.260;2023-04-24T14:41:28;4.37;;;3.57;;
28481;SDS011;15703;49.588;6.260;2023-04-24T14:43:51;4.30;;;3.90;;
28481;SDS011;15703;49.588;6.260;2023-04-24T14:46:14;5.00;;;4.37;;